sensor_id;sensor_type;location;lat;lon;timestamp;pressure;altitude;pressure_sealevel;temperature;humidity
21988;BME280;11158;53.404;-1.510;2023-04-26T00:00:17;100892.28;;;10.12;44.30
21988;BME280;11158;53.404;-1.510;2023-04-26T00:03:02;100894.81;;;10.38;43.99
21988;BME280;11158;53.404;-1.510;2023-04-26T00:05:47;100891.44;;;11.23;42.03
21988;BME280;11158;53.404;-1.510;2023-04-26T00:08:31;100888.28;;;11.42;41.51
21988;BME280;11158;53.404;-1.510;2023-04-26T00:11:15;100889.31;;;11.87;40.58
21988;BME280;11158;53.404;-1.510;2023-04-26T00:13:59;100878.38;;;12.12;39.82
21988;BME280;11158;53.404;-1.510;2023-04-26T00:16:43;100882.63;;;11.60;41.12
21988;BME280;11158;53.404;-1.510;2023-04-26T00:19:27;100877.63;;;11.80;40.67
21988;BME280;11158;53.404;-1.510;2023-04-26T00:22:11;100868.75;;;12.18;39.98
21988;BME280;11158;53.404;-1.510;2023-04-26T00:24:55;100880.25;;;11.88;40.39
21988;BME280;11158;53.404;-1.510;2023-04-26T00:27:40;100878.06;;;12.07;39.99
21988;BME280;11158;53.404;-1.510;2023-04-26T00:30:24;100865.91;;;12.19;40.01
21988;BME280;11158;53.404;-1.510;2023-04-26T00:33:09;100869.88;;;11.85;40.50
21988;BME280;11158;53.404;-1.510;2023-04-26T00:35:53;100861.78;;;11.47;41.30
21988;BME280;11158;53.404;-1.510;2023-04-26T00:38:37;100865.91;;;11.12;42.12
21988;BME280;11158;53.404;-1.510;2023-04-26T00:41:22;100865.84;;;11.20;41.97
21988;BME280;11158;53.404;-1.510;2023-04-26T00:44:07;100864.84;;;11.21;42.26
21988;BME280;11158;53.404;-1.510;2023-04-26T00:46:51;100864.44;;;9.98;44.94
21988;BME280;11158;53.404;-1.510;2023-04-26T00:49:36;100865.78;;;9.94;45.09
21988;BME280;11158;53.404;-1.510;2023-04-26T00:52:21;100861.91;;;10.29;44.27
21988;BME280;11158;53.404;-1.510;2023-04-26T00:55:06;100862.75;;;10.69;43.65
21988;BME280;11158;53.404;-1.510;2023-04-26T00:57:51;100862.53;;;10.39;44.11
21988;BME280;11158;53.404;-1.510;2023-04-26T01:00:35;100863.34;;;10.56;43.87
21988;BME280;11158;53.404;-1.510;2023-04-26T01:03:19;100859.94;;;9.98;44.95
21988;BME280;11158;53.404;-1.510;2023-04-26T01:06:03;100854.41;;;9.92;45.60
21988;BME280;11158;53.404;-1.510;2023-04-26T01:08:51;100854.44;;;9.75;46.08
21988;BME280;11158;53.404;-1.510;2023-04-26T01:11:37;100843.34;;;10.36;44.40
21988;BME280;11158;53.404;-1.510;2023-04-26T01:14:21;100837.34;;;10.34;44.81
21988;BME280;11158;53.404;-1.510;2023-04-26T01:17:06;100828.00;;;10.30;44.59
21988;BME280;11158;53.404;-1.510;2023-04-26T01:19:51;100833.53;;;10.20;44.87
21988;BME280;11158;53.404;-1.510;2023-04-26T01:22:35;100825.25;;;9.82;45.91
21988;BME280;11158;53.404;-1.510;2023-04-26T01:25:20;100825.06;;;9.83;45.94
21988;BME280;11158;53.404;-1.510;2023-04-26T01:28:04;100827.00;;;10.31;44.87
21988;BME280;11158;53.404;-1.510;2023-04-26T01:30:48;100825.84;;;10.64;43.89
21988;BME280;11158;53.404;-1.510;2023-04-26T01:33:32;100815.97;;;10.34;44.73
21988;BME280;11158;53.404;-1.510;2023-04-26T01:36:16;100821.09;;;10.83;43.63
21988;BME280;11158;53.404;-1.510;2023-04-26T01:39:00;100819.19;;;11.23;42.65
21988;BME280;11158;53.404;-1.510;2023-04-26T01:41:44;100815.44;;;11.09;42.97
21988;BME280;11158;53.404;-1.510;2023-04-26T01:44:28;100813.75;;;11.08;42.81
21988;BME280;11158;53.404;-1.510;2023-04-26T01:47:13;100811.84;;;11.17;43.28
21988;BME280;11158;53.404;-1.510;2023-04-26T01:49:57;100804.47;;;11.19;43.75
21988;BME280;11158;53.404;-1.510;2023-04-26T01:52:41;100800.91;;;11.26;43.75
21988;BME280;11158;53.404;-1.510;2023-04-26T01:55:25;100804.59;;;11.25;44.20
21988;BME280;11158;53.404;-1.510;2023-04-26T01:58:09;100806.09;;;11.05;44.88
21988;BME280;11158;53.404;-1.510;2023-04-26T02:00:53;100800.91;;;11.03;44.99
21988;BME280;11158;53.404;-1.510;2023-04-26T02:03:37;100801.69;;;11.12;45.20
21988;BME280;11158;53.404;-1.510;2023-04-26T02:06:21;100792.75;;;10.97;45.33
21988;BME280;11158;53.404;-1.510;2023-04-26T02:09:06;100794.34;;;10.83;45.68
21988;BME280;11158;53.404;-1.510;2023-04-26T02:11:52;100795.75;;;10.71;46.11
21988;BME280;11158;53.404;-1.510;2023-04-26T02:14:36;100798.81;;;10.59;46.57
21988;BME280;11158;53.404;-1.510;2023-04-26T02:17:20;100797.50;;;10.55;46.42
21988;BME280;11158;53.404;-1.510;2023-04-26T02:20:06;100799.09;;;10.73;46.20
21988;BME280;11158;53.404;-1.510;2023-04-26T02:22:53;100792.25;;;10.31;47.20
21988;BME280;11158;53.404;-1.510;2023-04-26T02:25:37;100792.88;;;9.77;48.11
21988;BME280;11158;53.404;-1.510;2023-04-26T02:28:22;100790.72;;;9.23;49.94
21988;BME280;11158;53.404;-1.510;2023-04-26T02:31:06;100783.28;;;10.07;48.26
21988;BME280;11158;53.404;-1.510;2023-04-26T02:33:50;100781.28;;;10.09;47.90
21988;BME280;11158;53.404;-1.510;2023-04-26T02:36:34;100773.94;;;10.03;48.40
21988;BME280;11158;53.404;-1.510;2023-04-26T02:39:18;100770.25;;;10.12;47.95
21988;BME280;11158;53.404;-1.510;2023-04-26T02:42:07;100772.19;;;9.79;48.66
21988;BME280;11158;53.404;-1.510;2023-04-26T02:44:52;100772.00;;;9.97;48.31
21988;BME280;11158;53.404;-1.510;2023-04-26T02:47:36;100776.78;;;10.10;48.08
21988;BME280;11158;53.404;-1.510;2023-04-26T02:50:21;100768.34;;;9.90;48.02
21988;BME280;11158;53.404;-1.510;2023-04-26T02:53:06;100769.47;;;10.03;48.16
21988;BME280;11158;53.404;-1.510;2023-04-26T02:55:49;100758.44;;;9.98;48.26
21988;BME280;11158;53.404;-1.510;2023-04-26T02:58:34;100764.03;;;9.72;48.74
21988;BME280;11158;53.404;-1.510;2023-04-26T03:01:18;100759.88;;;9.53;49.35
21988;BME280;11158;53.404;-1.510;2023-04-26T03:04:02;100762.38;;;9.71;48.77
21988;BME280;11158;53.404;-1.510;2023-04-26T03:06:47;100761.72;;;9.69;49.02
21988;BME280;11158;53.404;-1.510;2023-04-26T03:09:31;100765.88;;;9.39;49.37
21988;BME280;11158;53.404;-1.510;2023-04-26T03:12:17;100756.41;;;9.28;49.76
21988;BME280;11158;53.404;-1.510;2023-04-26T03:15:01;100758.75;;;9.39;49.83
21988;BME280;11158;53.404;-1.510;2023-04-26T03:17:46;100744.22;;;9.34;50.01
21988;BME280;11158;53.404;-1.510;2023-04-26T03:20:30;100743.75;;;9.30;49.63
21988;BME280;11158;53.404;-1.510;2023-04-26T03:23:15;100749.88;;;9.06;50.18
21988;BME280;11158;53.404;-1.510;2023-04-26T03:25:59;100754.06;;;9.33;49.75
21988;BME280;11158;53.404;-1.510;2023-04-26T03:28:43;100741.34;;;9.68;48.83
21988;BME280;11158;53.404;-1.510;2023-04-26T03:31:27;100745.34;;;9.80;48.55
21988;BME280;11158;53.404;-1.510;2023-04-26T03:34:11;100752.72;;;9.46;48.78
21988;BME280;11158;53.404;-1.510;2023-04-26T03:36:55;100753.56;;;9.05;50.05
21988;BME280;11158;53.404;-1.510;2023-04-26T03:39:41;100759.34;;;8.84;50.43
21988;BME280;11158;53.404;-1.510;2023-04-26T03:42:25;100744.50;;;8.65;50.98
21988;BME280;11158;53.404;-1.510;2023-04-26T03:45:09;100745.69;;;8.79;50.83
21988;BME280;11158;53.404;-1.510;2023-04-26T03:47:54;100745.66;;;8.63;51.19
21988;BME280;11158;53.404;-1.510;2023-04-26T03:50:38;100748.16;;;8.13;51.99
21988;BME280;11158;53.404;-1.510;2023-04-26T03:53:22;100756.22;;;8.38;51.91
21988;BME280;11158;53.404;-1.510;2023-04-26T03:56:06;100748.81;;;8.50;51.69
21988;BME280;11158;53.404;-1.510;2023-04-26T03:58:51;100746.84;;;8.76;51.35
21988;BME280;11158;53.404;-1.510;2023-04-26T04:01:35;100742.69;;;8.74;51.10
21988;BME280;11158;53.404;-1.510;2023-04-26T04:04:19;100742.50;;;8.16;52.55
21988;BME280;11158;53.404;-1.510;2023-04-26T04:07:03;100740.28;;;8.46;51.68
21988;BME280;11158;53.404;-1.510;2023-04-26T04:09:47;100741.47;;;8.17;52.58
21988;BME280;11158;53.404;-1.510;2023-04-26T04:12:31;100734.63;;;8.49;51.79
21988;BME280;11158;53.404;-1.510;2023-04-26T04:15:15;100743.00;;;8.63;51.80
21988;BME280;11158;53.404;-1.510;2023-04-26T04:18:00;100728.03;;;8.62;50.83
21988;BME280;11158;53.404;-1.510;2023-04-26T04:20:44;100731.00;;;8.75;51.30
21988;BME280;11158;53.404;-1.510;2023-04-26T04:23:29;100717.03;;;9.14;50.24
21988;BME280;11158;53.404;-1.510;2023-04-26T04:26:13;100712.38;;;9.49;49.12
21988;BME280;11158;53.404;-1.510;2023-04-26T04:28:58;100715.22;;;9.31;48.84
21988;BME280;11158;53.404;-1.510;2023-04-26T04:31:51;100716.38;;;9.04;49.80
21988;BME280;11158;53.404;-1.510;2023-04-26T04:34:35;100721.88;;;8.77;50.70
21988;BME280;11158;53.404;-1.510;2023-04-26T04:37:20;100717.03;;;8.65;51.23
21988;BME280;11158;53.404;-1.510;2023-04-26T04:40:05;100713.88;;;8.69;51.30
21988;BME280;11158;53.404;-1.510;2023-04-26T04:42:53;100723.34;;;8.72;51.16
21988;BME280;11158;53.404;-1.510;2023-04-26T04:45:38;100721.91;;;8.94;50.31
21988;BME280;11158;53.404;-1.510;2023-04-26T04:48:22;100729.06;;;9.10;49.40
21988;BME280;11158;53.404;-1.510;2023-04-26T04:51:06;100729.38;;;9.31;49.25
21988;BME280;11158;53.404;-1.510;2023-04-26T04:53:51;100738.53;;;8.88;50.30
21988;BME280;11158;53.404;-1.510;2023-04-26T04:56:35;100744.88;;;8.87;50.25
21988;BME280;11158;53.404;-1.510;2023-04-26T04:59:19;100740.50;;;8.69;50.84
21988;BME280;11158;53.404;-1.510;2023-04-26T05:02:03;100744.81;;;8.54;51.47
21988;BME280;11158;53.404;-1.510;2023-04-26T05:04:48;100740.03;;;8.31;52.10
21988;BME280;11158;53.404;-1.510;2023-04-26T05:07:32;100750.31;;;7.84;52.87
21988;BME280;11158;53.404;-1.510;2023-04-26T05:10:16;100739.63;;;8.44;51.99
21988;BME280;11158;53.404;-1.510;2023-04-26T05:13:01;100733.50;;;8.60;51.70
21988;BME280;11158;53.404;-1.510;2023-04-26T05:15:45;100736.88;;;8.28;52.77
21988;BME280;11158;53.404;-1.510;2023-04-26T05:18:29;100736.31;;;8.58;51.81
21988;BME280;11158;53.404;-1.510;2023-04-26T05:21:13;100737.78;;;7.76;52.93
21988;BME280;11158;53.404;-1.510;2023-04-26T05:23:57;100734.44;;;8.43;52.13
21988;BME280;11158;53.404;-1.510;2023-04-26T05:26:41;100742.16;;;8.70;51.25
21988;BME280;11158;53.404;-1.510;2023-04-26T05:29:29;100741.03;;;8.97;51.09
21988;BME280;11158;53.404;-1.510;2023-04-26T05:32:13;100737.88;;;8.77;50.93
21988;BME280;11158;53.404;-1.510;2023-04-26T05:34:58;100742.88;;;9.13;50.21
21988;BME280;11158;53.404;-1.510;2023-04-26T05:37:42;100728.22;;;9.17;50.42
21988;BME280;11158;53.404;-1.510;2023-04-26T05:40:26;100733.53;;;9.50;49.88
21988;BME280;11158;53.404;-1.510;2023-04-26T05:43:10;100731.13;;;9.80;48.48
21988;BME280;11158;53.404;-1.510;2023-04-26T05:45:56;100733.63;;;9.90;48.14
21988;BME280;11158;53.404;-1.510;2023-04-26T05:48:40;100737.03;;;10.15;47.74
21988;BME280;11158;53.404;-1.510;2023-04-26T05:51:24;100741.59;;;9.98;48.02
21988;BME280;11158;53.404;-1.510;2023-04-26T05:54:09;100741.38;;;10.16;47.86
21988;BME280;11158;53.404;-1.510;2023-04-26T05:56:53;100741.47;;;10.39;47.01
21988;BME280;11158;53.404;-1.510;2023-04-26T05:59:37;100741.09;;;10.42;46.96
21988;BME280;11158;53.404;-1.510;2023-04-26T06:02:22;100739.31;;;11.11;45.64
21988;BME280;11158;53.404;-1.510;2023-04-26T06:05:06;100736.94;;;11.17;44.70
21988;BME280;11158;53.404;-1.510;2023-04-26T06:07:52;100737.94;;;11.53;43.86
21988;BME280;11158;53.404;-1.510;2023-04-26T06:10:36;100730.81;;;11.46;43.95
21988;BME280;11158;53.404;-1.510;2023-04-26T06:13:21;100726.06;;;13.31;40.60
21988;BME280;11158;53.404;-1.510;2023-04-26T06:16:05;100730.81;;;13.57;39.51
21988;BME280;11158;53.404;-1.510;2023-04-26T06:18:49;100736.34;;;13.06;40.27
21988;BME280;11158;53.404;-1.510;2023-04-26T06:21:34;100733.28;;;12.88;40.58
21988;BME280;11158;53.404;-1.510;2023-04-26T06:24:19;100732.13;;;12.97;40.41
21988;BME280;11158;53.404;-1.510;2023-04-26T06:27:03;100727.06;;;13.52;39.63
21988;BME280;11158;53.404;-1.510;2023-04-26T06:29:47;100728.47;;;14.79;37.30
21988;BME280;11158;53.404;-1.510;2023-04-26T06:32:31;100719.41;;;15.53;35.22
21988;BME280;11158;53.404;-1.510;2023-04-26T06:35:15;100726.84;;;14.98;35.78
21988;BME280;11158;53.404;-1.510;2023-04-26T06:37:59;100725.69;;;16.64;33.36
21988;BME280;11158;53.404;-1.510;2023-04-26T06:40:43;100721.03;;;16.84;32.67
21988;BME280;11158;53.404;-1.510;2023-04-26T06:43:27;100730.59;;;17.12;32.96
21988;BME280;11158;53.404;-1.510;2023-04-26T06:46:11;100728.97;;;16.79;32.78
21988;BME280;11158;53.404;-1.510;2023-04-26T06:48:56;100720.88;;;16.34;33.48
21988;BME280;11158;53.404;-1.510;2023-04-26T06:51:43;100725.50;;;16.13;34.11
21988;BME280;11158;53.404;-1.510;2023-04-26T06:54:28;100731.41;;;15.90;34.02
21988;BME280;11158;53.404;-1.510;2023-04-26T06:57:13;100727.28;;;15.75;34.54
21988;BME280;11158;53.404;-1.510;2023-04-26T06:59:58;100733.94;;;15.72;34.24
21988;BME280;11158;53.404;-1.510;2023-04-26T07:02:42;100737.81;;;14.83;35.73
21988;BME280;11158;53.404;-1.510;2023-04-26T07:05:26;100744.38;;;14.60;36.41
21988;BME280;11158;53.404;-1.510;2023-04-26T07:08:10;100737.41;;;14.93;36.27
21988;BME280;11158;53.404;-1.510;2023-04-26T07:10:54;100734.59;;;16.71;32.79
21988;BME280;11158;53.404;-1.510;2023-04-26T07:13:38;100731.41;;;15.84;33.67
21988;BME280;11158;53.404;-1.510;2023-04-26T07:16:23;100734.47;;;15.94;33.75
21988;BME280;11158;53.404;-1.510;2023-04-26T07:19:07;100735.97;;;15.83;33.49
21988;BME280;11158;53.404;-1.510;2023-04-26T07:21:52;100722.88;;;15.87;33.70
21988;BME280;11158;53.404;-1.510;2023-04-26T07:24:36;100725.53;;;16.07;32.94
21988;BME280;11158;53.404;-1.510;2023-04-26T07:27:20;100721.84;;;15.95;32.87
21988;BME280;11158;53.404;-1.510;2023-04-26T07:30:05;100724.72;;;16.00;33.20
21988;BME280;11158;53.404;-1.510;2023-04-26T07:32:49;100732.84;;;15.66;33.56
21988;BME280;11158;53.404;-1.510;2023-04-26T07:35:33;100730.16;;;15.86;33.96
21988;BME280;11158;53.404;-1.510;2023-04-26T07:38:19;100736.16;;;14.34;35.84
21988;BME280;11158;53.404;-1.510;2023-04-26T07:41:03;100732.28;;;14.36;35.79
21988;BME280;11158;53.404;-1.510;2023-04-26T07:43:47;100737.38;;;14.66;35.51
21988;BME280;11158;53.404;-1.510;2023-04-26T07:46:33;100732.59;;;14.20;36.83
21988;BME280;11158;53.404;-1.510;2023-04-26T07:49:17;100724.41;;;13.93;36.95
21988;BME280;11158;53.404;-1.510;2023-04-26T07:52:02;100727.63;;;13.75;37.87
21988;BME280;11158;53.404;-1.510;2023-04-26T07:54:46;100724.31;;;13.45;38.35
21988;BME280;11158;53.404;-1.510;2023-04-26T07:57:31;100724.75;;;13.49;38.37
21988;BME280;11158;53.404;-1.510;2023-04-26T08:00:15;100723.28;;;14.77;36.48
21988;BME280;11158;53.404;-1.510;2023-04-26T08:03:00;100728.88;;;14.62;36.25
21988;BME280;11158;53.404;-1.510;2023-04-26T08:05:44;100727.78;;;12.53;39.73
21988;BME280;11158;53.404;-1.510;2023-04-26T08:08:28;100729.81;;;13.65;38.16
21988;BME280;11158;53.404;-1.510;2023-04-26T08:11:13;100735.94;;;14.83;35.52
21988;BME280;11158;53.404;-1.510;2023-04-26T08:13:57;100729.19;;;14.39;36.39
21988;BME280;11158;53.404;-1.510;2023-04-26T08:16:41;100728.09;;;15.02;35.46
21988;BME280;11158;53.404;-1.510;2023-04-26T08:19:25;100709.34;;;16.07;33.35
21988;BME280;11158;53.404;-1.510;2023-04-26T08:22:09;100708.78;;;16.43;32.77
21988;BME280;11158;53.404;-1.510;2023-04-26T08:24:54;100709.78;;;17.63;31.11
21988;BME280;11158;53.404;-1.510;2023-04-26T08:27:39;100707.03;;;18.25;29.95
21988;BME280;11158;53.404;-1.510;2023-04-26T08:30:23;100703.22;;;18.62;29.35
21988;BME280;11158;53.404;-1.510;2023-04-26T08:33:11;100714.09;;;17.20;31.23
21988;BME280;11158;53.404;-1.510;2023-04-26T08:35:55;100702.72;;;17.87;30.31
21988;BME280;11158;53.404;-1.510;2023-04-26T08:38:39;100708.69;;;18.44;30.01
21988;BME280;11158;53.404;-1.510;2023-04-26T08:41:24;100703.56;;;18.66;29.44
21988;BME280;11158;53.404;-1.510;2023-04-26T08:44:10;100704.13;;;18.26;30.02
21988;BME280;11158;53.404;-1.510;2023-04-26T08:47:36;100699.81;;;18.97;29.05
21988;BME280;11158;53.404;-1.510;2023-04-26T08:50:22;100690.06;;;19.43;27.91
21988;BME280;11158;53.404;-1.510;2023-04-26T09:13:39;100689.59;;;16.58;31.03
21988;BME280;11158;53.404;-1.510;2023-04-26T09:16:36;100695.13;;;15.80;32.17
21988;BME280;11158;53.404;-1.510;2023-04-26T09:19:40;100694.38;;;16.18;30.99
21988;BME280;11158;53.404;-1.510;2023-04-26T09:22:31;100680.75;;;16.44;29.94
21988;BME280;11158;53.404;-1.510;2023-04-26T09:25:18;100686.56;;;16.86;29.78
21988;BME280;11158;53.404;-1.510;2023-04-26T09:28:20;100693.25;;;16.77;29.76
21988;BME280;11158;53.404;-1.510;2023-04-26T09:31:05;100690.28;;;16.08;30.61
21988;BME280;11158;53.404;-1.510;2023-04-26T09:33:59;100694.72;;;15.69;30.73
21988;BME280;11158;53.404;-1.510;2023-04-26T09:36:53;100695.00;;;16.58;29.89
21988;BME280;11158;53.404;-1.510;2023-04-26T09:39:41;100695.34;;;16.37;30.23
21988;BME280;11158;53.404;-1.510;2023-04-26T09:42:25;100686.56;;;16.86;28.91
21988;BME280;11158;53.404;-1.510;2023-04-26T09:45:10;100685.19;;;16.70;28.99
21988;BME280;11158;53.404;-1.510;2023-04-26T09:48:00;100683.19;;;17.41;28.02
21988;BME280;11158;53.404;-1.510;2023-04-26T09:51:07;100677.25;;;17.32;27.81
21988;BME280;11158;53.404;-1.510;2023-04-26T09:53:52;100681.19;;;17.55;26.85
21988;BME280;11158;53.404;-1.510;2023-04-26T09:56:36;100673.66;;;16.88;27.66
21988;BME280;11158;53.404;-1.510;2023-04-26T09:59:20;100674.81;;;17.24;28.02
21988;BME280;11158;53.404;-1.510;2023-04-26T10:02:04;100674.00;;;17.86;26.95
21988;BME280;11158;53.404;-1.510;2023-04-26T10:04:54;100675.09;;;17.16;27.58
21988;BME280;11158;53.404;-1.510;2023-04-26T10:07:39;100683.56;;;16.94;26.85
21988;BME280;11158;53.404;-1.510;2023-04-26T10:10:24;100671.56;;;16.20;28.04
21988;BME280;11158;53.404;-1.510;2023-04-26T10:13:12;100673.41;;;17.40;27.32
21988;BME280;11158;53.404;-1.510;2023-04-26T10:15:56;100665.56;;;17.13;26.24
21988;BME280;11158;53.404;-1.510;2023-04-26T10:18:40;100668.69;;;17.10;25.17
21988;BME280;11158;53.404;-1.510;2023-04-26T10:21:32;100648.91;;;17.60;25.70
21988;BME280;11158;53.404;-1.510;2023-04-26T10:24:18;100658.56;;;17.49;24.62
21988;BME280;11158;53.404;-1.510;2023-04-26T10:27:02;100657.25;;;17.95;24.37
21988;BME280;11158;53.404;-1.510;2023-04-26T10:30:06;100645.53;;;18.32;23.26
21988;BME280;11158;53.404;-1.510;2023-04-26T10:35:59;100644.53;;;17.41;24.60
21988;BME280;11158;53.404;-1.510;2023-04-26T10:39:18;100649.91;;;16.97;24.44
21988;BME280;11158;53.404;-1.510;2023-04-26T10:42:26;100639.16;;;17.77;23.79
21988;BME280;11158;53.404;-1.510;2023-04-26T10:45:27;100641.22;;;17.82;23.42
21988;BME280;11158;53.404;-1.510;2023-04-26T10:48:13;100636.72;;;18.06;22.74
21988;BME280;11158;53.404;-1.510;2023-04-26T10:59:22;100631.25;;;17.76;25.28
21988;BME280;11158;53.404;-1.510;2023-04-26T11:02:12;100629.75;;;18.59;24.72
21988;BME280;11158;53.404;-1.510;2023-04-26T11:04:56;100629.81;;;18.82;23.86
21988;BME280;11158;53.404;-1.510;2023-04-26T11:07:41;100630.94;;;18.63;24.40
21988;BME280;11158;53.404;-1.510;2023-04-26T11:10:25;100631.34;;;17.88;26.08
21988;BME280;11158;53.404;-1.510;2023-04-26T11:13:10;100626.53;;;17.53;26.71
21988;BME280;11158;53.404;-1.510;2023-04-26T11:16:03;100630.84;;;17.17;28.97
21988;BME280;11158;53.404;-1.510;2023-04-26T11:18:48;100640.06;;;15.36;30.20
21988;BME280;11158;53.404;-1.510;2023-04-26T11:21:32;100638.66;;;15.06;30.78
21988;BME280;11158;53.404;-1.510;2023-04-26T11:24:24;100644.47;;;15.10;30.56
21988;BME280;11158;53.404;-1.510;2023-04-26T11:27:09;100636.75;;;15.34;30.12
21988;BME280;11158;53.404;-1.510;2023-04-26T11:29:54;100646.84;;;14.45;30.92
21988;BME280;11158;53.404;-1.510;2023-04-26T11:32:38;100649.94;;;14.35;30.88
21988;BME280;11158;53.404;-1.510;2023-04-26T11:35:22;100650.84;;;14.69;30.85
21988;BME280;11158;53.404;-1.510;2023-04-26T11:38:08;100646.06;;;15.51;29.63
21988;BME280;11158;53.404;-1.510;2023-04-26T11:43:38;100648.69;;;15.64;29.62
21988;BME280;11158;53.404;-1.510;2023-04-26T11:46:23;100654.66;;;15.93;29.15
21988;BME280;11158;53.404;-1.510;2023-04-26T11:49:07;100661.34;;;15.77;29.36
21988;BME280;11158;53.404;-1.510;2023-04-26T11:51:52;100647.34;;;15.15;30.03
21988;BME280;11158;53.404;-1.510;2023-04-26T11:54:36;100650.38;;;15.59;30.55
21988;BME280;11158;53.404;-1.510;2023-04-26T11:57:21;100651.59;;;16.28;29.21
21988;BME280;11158;53.404;-1.510;2023-04-26T12:00:10;100652.16;;;15.91;30.58
21988;BME280;11158;53.404;-1.510;2023-04-26T12:02:55;100659.75;;;14.76;31.29
21988;BME280;11158;53.404;-1.510;2023-04-26T12:05:40;100662.00;;;15.53;30.38
21988;BME280;11158;53.404;-1.510;2023-04-26T12:08:27;100663.81;;;15.92;30.35
21988;BME280;11158;53.404;-1.510;2023-04-26T12:11:15;100660.81;;;15.28;31.72
21988;BME280;11158;53.404;-1.510;2023-04-26T12:14:00;100659.72;;;15.56;31.29
21988;BME280;11158;53.404;-1.510;2023-04-26T12:16:45;100664.72;;;15.39;31.19
21988;BME280;11158;53.404;-1.510;2023-04-26T12:19:33;100670.09;;;14.59;31.33
21988;BME280;11158;53.404;-1.510;2023-04-26T12:22:20;100672.50;;;14.34;31.43
21988;BME280;11158;53.404;-1.510;2023-04-26T12:25:07;100668.25;;;15.00;31.16
21988;BME280;11158;53.404;-1.510;2023-04-26T12:27:53;100661.44;;;15.31;29.76
21988;BME280;11158;53.404;-1.510;2023-04-26T12:30:38;100656.16;;;15.69;28.99
21988;BME280;11158;53.404;-1.510;2023-04-26T12:33:22;100659.06;;;16.26;28.14
21988;BME280;11158;53.404;-1.510;2023-04-26T12:36:09;100656.22;;;16.14;28.11
21988;BME280;11158;53.404;-1.510;2023-04-26T12:38:54;100657.59;;;16.68;27.37
21988;BME280;11158;53.404;-1.510;2023-04-26T12:41:40;100662.38;;;16.28;27.72
21988;BME280;11158;53.404;-1.510;2023-04-26T12:44:24;100660.16;;;16.18;27.91
21988;BME280;11158;53.404;-1.510;2023-04-26T12:47:09;100660.06;;;15.93;27.23
21988;BME280;11158;53.404;-1.510;2023-04-26T12:49:53;100655.38;;;16.59;26.84
21988;BME280;11158;53.404;-1.510;2023-04-26T12:52:39;100661.19;;;17.37;26.34
21988;BME280;11158;53.404;-1.510;2023-04-26T12:55:24;100660.16;;;17.57;24.80
21988;BME280;11158;53.404;-1.510;2023-04-26T12:58:08;100665.56;;;17.38;25.87
21988;BME280;11158;53.404;-1.510;2023-04-26T13:00:52;100659.06;;;17.83;25.26
21988;BME280;11158;53.404;-1.510;2023-04-26T13:03:36;100660.25;;;19.08;23.85
21988;BME280;11158;53.404;-1.510;2023-04-26T13:06:20;100649.75;;;19.59;22.76
21988;BME280;11158;53.404;-1.510;2023-04-26T13:09:04;100652.22;;;19.84;22.56
21988;BME280;11158;53.404;-1.510;2023-04-26T13:11:50;100663.06;;;18.59;23.57
21988;BME280;11158;53.404;-1.510;2023-04-26T13:14:34;100664.59;;;18.07;24.00
21988;BME280;11158;53.404;-1.510;2023-04-26T13:17:19;100670.50;;;18.76;23.46
21988;BME280;11158;53.404;-1.510;2023-04-26T13:20:04;100666.72;;;19.54;22.71
21988;BME280;11158;53.404;-1.510;2023-04-26T13:22:49;100664.84;;;19.43;22.95
21988;BME280;11158;53.404;-1.510;2023-04-26T13:25:34;100663.66;;;19.74;23.12
21988;BME280;11158;53.404;-1.510;2023-04-26T13:28:18;100666.69;;;18.95;23.97
21988;BME280;11158;53.404;-1.510;2023-04-26T13:31:02;100661.19;;;19.25;23.68
21988;BME280;11158;53.404;-1.510;2023-04-26T13:33:46;100660.03;;;20.09;22.58
21988;BME280;11158;53.404;-1.510;2023-04-26T13:36:31;100658.59;;;20.92;21.59
21988;BME280;11158;53.404;-1.510;2023-04-26T13:39:16;100655.53;;;20.43;21.99
21988;BME280;11158;53.404;-1.510;2023-04-26T13:42:00;100657.44;;;21.05;22.19
21988;BME280;11158;53.404;-1.510;2023-04-26T13:44:45;100670.47;;;19.65;22.91
21988;BME280;11158;53.404;-1.510;2023-04-26T13:47:29;100662.03;;;19.50;23.67
21988;BME280;11158;53.404;-1.510;2023-04-26T13:50:13;100656.47;;;19.80;23.13
21988;BME280;11158;53.404;-1.510;2023-04-26T13:52:58;100663.66;;;20.72;21.98
21988;BME280;11158;53.404;-1.510;2023-04-26T13:55:42;100664.09;;;20.52;21.68
21988;BME280;11158;53.404;-1.510;2023-04-26T13:58:26;100658.50;;;21.04;20.80
21988;BME280;11158;53.404;-1.510;2023-04-26T14:01:11;100657.19;;;20.90;21.66
21988;BME280;11158;53.404;-1.510;2023-04-26T14:03:59;100656.41;;;20.61;21.23
21988;BME280;11158;53.404;-1.510;2023-04-26T14:06:43;100654.69;;;20.43;21.22
21988;BME280;11158;53.404;-1.510;2023-04-26T14:09:27;100653.50;;;18.57;23.44
21988;BME280;11158;53.404;-1.510;2023-04-26T14:12:11;100662.91;;;18.84;23.84
21988;BME280;11158;53.404;-1.510;2023-04-26T14:14:55;100661.41;;;18.58;23.91
21988;BME280;11158;53.404;-1.510;2023-04-26T14:17:38;100660.69;;;18.51;23.69
21988;BME280;11158;53.404;-1.510;2023-04-26T14:20:23;100649.50;;;19.49;22.88
21988;BME280;11158;53.404;-1.510;2023-04-26T14:23:07;100641.13;;;20.43;22.27
21988;BME280;11158;53.404;-1.510;2023-04-26T14:25:52;100649.19;;;20.66;22.04
21988;BME280;11158;53.404;-1.510;2023-04-26T14:28:36;100648.13;;;20.10;21.67
21988;BME280;11158;53.404;-1.510;2023-04-26T14:31:21;100643.25;;;19.72;22.73
21988;BME280;11158;53.404;-1.510;2023-04-26T14:34:07;100643.38;;;20.46;21.61
21988;BME280;11158;53.404;-1.510;2023-04-26T14:36:51;100639.53;;;20.01;22.53
21988;BME280;11158;53.404;-1.510;2023-04-26T14:39:35;100650.94;;;19.16;22.82
21988;BME280;11158;53.404;-1.510;2023-04-26T14:42:19;100648.44;;;18.49;24.07
21988;BME280;11158;53.404;-1.510;2023-04-26T14:45:04;100638.31;;;18.86;23.65
21988;BME280;11158;53.404;-1.510;2023-04-26T14:47:48;100641.88;;;18.26;24.48
21988;BME280;11158;53.404;-1.510;2023-04-26T14:50:32;100650.69;;;18.21;24.61